createdAt,value
2022-10-14T00:00:24.607Z,998.45
2022-10-14T00:01:24.757Z,998.38
2022-10-14T00:02:24.586Z,998.43
2022-10-14T00:03:24.575Z,998.41
2022-10-14T00:04:24.571Z,998.41
2022-10-14T00:05:24.565Z,998.38
2022-10-14T00:06:24.587Z,998.43
2022-10-14T00:07:24.543Z,998.37
2022-10-14T00:08:24.541Z,998.39
2022-10-14T00:09:24.547Z,998.40
2022-10-14T00:10:24.520Z,998.42
2022-10-14T00:11:24.546Z,998.43
2022-10-14T00:12:24.501Z,998.41
2022-10-14T00:13:24.495Z,998.41
2022-10-14T00:14:24.488Z,998.37
2022-10-14T00:15:24.489Z,998.41
2022-10-14T00:16:24.499Z,998.34
2022-10-14T00:17:24.458Z,998.35
2022-10-14T00:18:24.454Z,998.32
2022-10-14T00:19:24.448Z,998.39
2022-10-14T00:20:24.439Z,998.40
2022-10-14T00:21:24.460Z,998.48
2022-10-14T00:22:24.417Z,998.37
2022-10-14T00:23:24.405Z,998.36
2022-10-14T00:24:24.394Z,998.43
2022-10-14T00:25:24.398Z,998.44
2022-10-14T00:26:24.415Z,998.47
2022-10-14T00:27:24.390Z,998.41
2022-10-14T00:28:24.412Z,998.46
2022-10-14T00:29:24.357Z,998.46
2022-10-14T00:30:24.344Z,998.40
2022-10-14T00:31:24.358Z,998.44
2022-10-14T00:32:24.364Z,998.37
2022-10-14T00:33:24.318Z,998.39
2022-10-14T00:34:24.316Z,998.41
2022-10-14T00:35:24.313Z,998.40
2022-10-14T00:36:24.338Z,998.42
2022-10-14T00:37:24.568Z,998.43
2022-10-14T00:38:24.293Z,998.43
2022-10-14T00:39:24.270Z,998.47
2022-10-14T00:40:24.270Z,998.40
2022-10-14T00:41:24.295Z,998.45
2022-10-14T00:42:24.259Z,998.45
2022-10-14T00:43:24.250Z,998.39
2022-10-14T00:44:24.230Z,998.35
2022-10-14T00:45:24.235Z,998.39
2022-10-14T00:46:24.271Z,998.39
2022-10-14T00:47:24.362Z,998.43
2022-10-14T00:48:24.216Z,998.42
2022-10-14T00:49:24.199Z,998.46
2022-10-14T00:50:24.197Z,998.43
2022-10-14T00:51:24.217Z,998.49
2022-10-14T00:52:24.169Z,998.44
2022-10-14T00:53:24.164Z,998.38
2022-10-14T00:54:24.192Z,998.37
2022-10-14T00:55:24.158Z,998.45
2022-10-14T00:56:24.133Z,998.43
2022-10-14T00:57:24.322Z,998.43
2022-10-14T00:58:24.118Z,998.43
2022-10-14T00:59:24.109Z,998.46
2022-10-14T01:00:24.127Z,998.40
2022-10-14T01:01:24.100Z,998.41
2022-10-14T01:02:24.205Z,998.39
2022-10-14T01:03:24.077Z,998.42
2022-10-14T01:04:24.073Z,998.35
2022-10-14T01:05:24.061Z,998.35
2022-10-14T01:06:24.051Z,998.40
2022-10-14T01:07:24.284Z,998.39
2022-10-14T01:08:24.043Z,998.39
2022-10-14T01:09:24.035Z,998.38
2022-10-14T01:10:24.020Z,998.39
2022-10-14T01:11:24.017Z,998.39
2022-10-14T01:12:29.053Z,998.38
2022-10-14T01:13:25.996Z,998.41
2022-10-14T01:14:23.990Z,998.41
2022-10-14T01:15:23.976Z,998.35
2022-10-14T01:16:23.979Z,998.38
2022-10-14T01:17:23.999Z,998.38
2022-10-14T01:18:23.958Z,998.33
2022-10-14T01:19:23.951Z,998.37
2022-10-14T01:20:23.938Z,998.36
2022-10-14T01:21:23.938Z,998.40
2022-10-14T01:22:24.162Z,998.36
2022-10-14T01:23:23.931Z,998.36
2022-10-14T01:24:23.907Z,998.35
2022-10-14T01:25:23.904Z,998.32
2022-10-14T01:26:23.902Z,998.37
2022-10-14T01:27:23.945Z,998.32
2022-10-14T01:28:23.919Z,998.34
2022-10-14T01:29:23.873Z,998.35
2022-10-14T01:30:23.864Z,998.40
2022-10-14T01:31:23.928Z,998.35
2022-10-14T01:32:24.134Z,998.34
2022-10-14T01:33:23.836Z,998.31
2022-10-14T01:34:23.868Z,998.34
2022-10-14T01:35:23.820Z,998.32
2022-10-14T01:36:23.849Z,998.29
2022-10-14T01:37:23.799Z,998.28
2022-10-14T01:38:23.794Z,998.28
2022-10-14T01:39:23.808Z,998.28
2022-10-14T01:40:23.782Z,998.23
2022-10-14T01:41:23.763Z,998.18
2022-10-14T01:42:23.969Z,998.24
2022-10-14T01:43:23.754Z,998.13
2022-10-14T01:44:23.736Z,998.20
2022-10-14T01:45:23.736Z,998.12
2022-10-14T01:46:23.720Z,998.14
2022-10-14T01:47:23.747Z,998.15
2022-10-14T01:48:23.711Z,998.11
2022-10-14T01:49:23.700Z,998.09
2022-10-14T01:50:23.695Z,998.08
2022-10-14T01:51:23.680Z,998.13
2022-10-14T01:52:24.099Z,998.11
2022-10-14T01:53:23.658Z,998.14
2022-10-14T01:54:23.655Z,998.11
2022-10-14T01:55:23.661Z,998.12
2022-10-14T01:56:23.641Z,998.15
2022-10-14T01:57:23.696Z,998.15
2022-10-14T01:58:23.623Z,998.14
2022-10-14T01:59:23.612Z,998.16
2022-10-14T02:00:23.606Z,998.15
2022-10-14T02:01:23.689Z,998.11
2022-10-14T02:02:23.863Z,998.12
2022-10-14T02:03:23.577Z,998.08
2022-10-14T02:04:23.586Z,998.08
2022-10-14T02:05:23.565Z,998.01
2022-10-14T02:06:23.582Z,998.09
2022-10-14T02:07:23.585Z,998.05
2022-10-14T02:08:23.547Z,998.06
2022-10-14T02:09:23.536Z,998.07
2022-10-14T02:10:23.527Z,998.09
2022-10-14T02:11:23.512Z,998.07
2022-10-14T02:12:23.947Z,998.01
2022-10-14T02:13:23.500Z,997.98
2022-10-14T02:14:23.498Z,998.04
2022-10-14T02:15:23.478Z,998.03
2022-10-14T02:16:23.500Z,998.06
2022-10-14T02:17:23.532Z,998.06
2022-10-14T02:18:23.455Z,997.97
2022-10-14T02:19:23.504Z,998.06
2022-10-14T02:20:23.445Z,997.97
2022-10-14T02:21:23.438Z,998.02
2022-10-14T02:22:23.915Z,998.01
2022-10-14T02:23:23.419Z,997.94
2022-10-14T02:24:23.462Z,997.97
2022-10-14T02:25:23.398Z,998.01
2022-10-14T02:26:23.390Z,998.00
2022-10-14T02:27:23.696Z,997.98
2022-10-14T02:28:23.394Z,997.99
2022-10-14T02:29:23.541Z,997.96
2022-10-14T02:30:23.366Z,997.95
2022-10-14T02:31:23.351Z,997.96
2022-10-14T02:32:23.837Z,997.99
2022-10-14T02:33:23.329Z,997.95
2022-10-14T02:34:23.319Z,997.89
2022-10-14T02:35:23.314Z,998.00
2022-10-14T02:36:23.301Z,997.93
2022-10-14T02:37:23.326Z,997.93
2022-10-14T02:38:24.291Z,997.91
2022-10-14T02:39:23.276Z,997.91
2022-10-14T02:40:23.294Z,997.84
2022-10-14T02:41:23.258Z,997.91
2022-10-14T02:42:24.430Z,997.84
2022-10-14T02:43:23.252Z,997.85
2022-10-14T02:44:23.236Z,997.88
2022-10-14T02:45:23.241Z,997.84
2022-10-14T02:46:23.227Z,997.85
2022-10-14T02:47:23.243Z,997.86
2022-10-14T02:48:23.212Z,997.81
2022-10-14T02:49:23.231Z,997.81
2022-10-14T02:50:23.200Z,997.76
2022-10-14T02:51:23.181Z,997.77
2022-10-14T02:52:23.512Z,997.74
2022-10-14T02:53:23.175Z,997.71
2022-10-14T02:54:23.147Z,997.70
2022-10-14T02:55:24.152Z,997.72
2022-10-14T02:56:23.142Z,997.71
2022-10-14T02:57:23.165Z,997.68
2022-10-14T02:58:23.122Z,997.67
2022-10-14T02:59:23.120Z,997.66
2022-10-14T03:00:23.114Z,997.68
2022-10-14T03:01:23.159Z,997.68
2022-10-14T03:02:23.353Z,997.63
2022-10-14T03:03:23.085Z,997.69
2022-10-14T03:04:23.083Z,997.60
2022-10-14T03:05:23.068Z,997.67
2022-10-14T03:06:23.063Z,997.60
2022-10-14T03:07:23.077Z,997.60
2022-10-14T03:08:23.104Z,997.67
2022-10-14T03:09:23.038Z,997.64
2022-10-14T03:10:23.054Z,997.65
2022-10-14T03:11:23.017Z,997.68
2022-10-14T03:12:23.378Z,997.72
2022-10-14T03:13:23.009Z,997.76
2022-10-14T03:14:22.996Z,997.65
2022-10-14T03:15:22.983Z,997.64
2022-10-14T03:16:22.988Z,997.64
2022-10-14T03:17:23.015Z,997.60
2022-10-14T03:18:22.984Z,997.56
2022-10-14T03:19:22.961Z,997.61
2022-10-14T03:20:22.972Z,997.56
2022-10-14T03:21:22.964Z,997.51
2022-10-14T03:22:23.367Z,997.55
2022-10-14T03:23:22.915Z,997.46
2022-10-14T03:24:22.938Z,997.53
2022-10-14T03:25:22.908Z,997.52
2022-10-14T03:26:22.896Z,997.51
2022-10-14T03:27:22.923Z,997.50
2022-10-14T03:28:22.912Z,997.41
2022-10-14T03:29:22.877Z,997.45
2022-10-14T03:30:22.860Z,997.45
2022-10-14T03:31:22.855Z,997.39
2022-10-14T03:32:23.251Z,997.41
2022-10-14T03:33:25.914Z,997.45
2022-10-14T03:34:23.833Z,997.49
2022-10-14T03:35:22.819Z,997.44
2022-10-14T03:36:22.810Z,997.52
2022-10-14T03:37:22.881Z,997.47
2022-10-14T03:38:22.848Z,997.54
2022-10-14T03:39:22.784Z,997.54
2022-10-14T03:40:22.769Z,997.57
2022-10-14T03:41:23.761Z,997.51
2022-10-14T03:42:22.994Z,997.46
2022-10-14T03:43:22.751Z,997.56
2022-10-14T03:44:22.790Z,997.57
2022-10-14T03:45:22.733Z,997.52
2022-10-14T03:46:22.724Z,997.52
2022-10-14T03:47:23.173Z,997.56
2022-10-14T03:48:22.712Z,997.52
2022-10-14T03:49:22.697Z,997.55
2022-10-14T03:50:22.690Z,997.50
2022-10-14T03:51:22.689Z,997.50
2022-10-14T03:52:23.020Z,997.51
2022-10-14T03:53:22.668Z,997.53
2022-10-14T03:54:22.662Z,997.55
2022-10-14T03:55:22.654Z,997.55
2022-10-14T03:56:22.644Z,997.54
2022-10-14T03:57:22.636Z,997.53
2022-10-14T03:58:22.656Z,997.50
2022-10-14T03:59:22.625Z,997.55
2022-10-14T04:00:22.624Z,997.58
2022-10-14T04:01:22.660Z,997.59
2022-10-14T04:02:22.886Z,997.56
2022-10-14T04:03:22.613Z,997.55
2022-10-14T04:04:22.579Z,997.63
2022-10-14T04:05:22.577Z,997.56
2022-10-14T04:06:22.561Z,997.58
2022-10-14T04:07:22.569Z,997.59
2022-10-14T04:08:22.583Z,997.53
2022-10-14T04:09:22.549Z,997.53
2022-10-14T04:10:22.561Z,997.59
2022-10-14T04:11:22.528Z,997.57
2022-10-14T04:12:23.058Z,997.48
2022-10-14T04:13:22.547Z,997.51
2022-10-14T04:14:22.502Z,997.45
2022-10-14T04:15:22.492Z,997.49
2022-10-14T04:16:22.506Z,997.44
2022-10-14T04:17:22.482Z,997.49
2022-10-14T04:18:22.502Z,997.45
2022-10-14T04:19:22.465Z,997.45
2022-10-14T04:20:22.458Z,997.53
2022-10-14T04:21:22.447Z,997.45
2022-10-14T04:22:22.773Z,997.44
2022-10-14T04:23:22.455Z,997.45
2022-10-14T04:24:22.420Z,997.46
2022-10-14T04:25:22.415Z,997.43
2022-10-14T04:26:22.420Z,997.42
2022-10-14T04:27:22.485Z,997.46
2022-10-14T04:28:22.477Z,997.45
2022-10-14T04:29:22.380Z,997.41
2022-10-14T04:30:22.381Z,997.40
2022-10-14T04:31:22.366Z,997.46
2022-10-14T04:32:22.816Z,997.47
2022-10-14T04:33:22.388Z,997.41
2022-10-14T04:34:22.345Z,997.40
2022-10-14T04:35:22.338Z,997.40
2022-10-14T04:36:22.324Z,997.39
2022-10-14T04:37:22.315Z,997.42
2022-10-14T04:38:22.334Z,997.34
2022-10-14T04:39:22.305Z,997.38
2022-10-14T04:40:22.288Z,997.38
2022-10-14T04:41:22.286Z,997.39
2022-10-14T04:42:22.538Z,997.39
2022-10-14T04:43:22.295Z,997.39
2022-10-14T04:44:22.261Z,997.43
2022-10-14T04:45:22.310Z,997.32
2022-10-14T04:46:22.258Z,997.33
2022-10-14T04:47:22.234Z,997.34
2022-10-14T04:48:22.262Z,997.41
2022-10-14T04:49:22.221Z,997.33
2022-10-14T04:50:22.212Z,997.31
2022-10-14T04:51:22.201Z,997.26
2022-10-14T04:52:22.583Z,997.29
2022-10-14T04:53:22.596Z,997.26
2022-10-14T04:54:23.183Z,997.25
2022-10-14T04:55:22.179Z,997.26
2022-10-14T04:56:22.169Z,997.22
2022-10-14T04:57:22.186Z,997.19
2022-10-14T04:58:22.173Z,997.20
2022-10-14T04:59:22.136Z,997.23
2022-10-14T05:00:22.145Z,997.19
2022-10-14T05:01:22.226Z,997.27
2022-10-14T05:02:22.385Z,997.20
2022-10-14T05:03:23.139Z,997.17
2022-10-14T05:04:22.102Z,997.16
2022-10-14T05:05:22.092Z,997.17
2022-10-14T05:06:22.080Z,997.10
2022-10-14T05:07:22.070Z,997.13
2022-10-14T05:08:22.088Z,997.20
2022-10-14T05:09:22.051Z,997.13
2022-10-14T05:10:22.041Z,997.17
2022-10-14T05:11:22.031Z,997.19
2022-10-14T05:12:22.327Z,997.16
2022-10-14T05:13:22.064Z,997.14
2022-10-14T05:14:22.005Z,997.21
2022-10-14T05:15:22.006Z,997.12
2022-10-14T05:16:21.997Z,997.13
2022-10-14T05:17:21.999Z,997.16
2022-10-14T05:18:22.014Z,997.10
2022-10-14T05:19:21.980Z,997.16
2022-10-14T05:20:21.959Z,997.18
2022-10-14T05:21:21.962Z,997.15
2022-10-14T05:22:22.136Z,997.21
2022-10-14T05:23:21.983Z,997.18
2022-10-14T05:24:21.943Z,997.17
2022-10-14T05:25:21.930Z,997.18
2022-10-14T05:26:21.920Z,997.23
2022-10-14T05:27:21.913Z,997.17
2022-10-14T05:28:21.975Z,997.18
2022-10-14T05:29:21.897Z,997.19
2022-10-14T05:30:21.884Z,997.14
2022-10-14T05:31:21.901Z,997.14
2022-10-14T05:32:22.093Z,997.17
2022-10-14T05:33:21.903Z,997.15
2022-10-14T05:34:21.867Z,997.11
2022-10-14T05:35:39.856Z,997.12
2022-10-14T05:36:23.848Z,997.15
2022-10-14T05:37:21.841Z,997.11
2022-10-14T05:38:21.861Z,997.07
2022-10-14T05:39:21.821Z,997.11
2022-10-14T05:40:21.810Z,997.09
2022-10-14T05:41:21.802Z,997.08
2022-10-14T05:42:22.168Z,997.11
2022-10-14T05:43:21.827Z,997.11
2022-10-14T05:44:21.777Z,997.10
2022-10-14T05:45:21.771Z,997.08
2022-10-14T05:46:21.756Z,997.10
2022-10-14T05:47:21.754Z,997.08
2022-10-14T05:48:21.770Z,997.04
2022-10-14T05:49:21.746Z,997.08
2022-10-14T05:50:21.725Z,996.98
2022-10-14T05:51:21.717Z,996.95
2022-10-14T05:52:21.827Z,996.97
2022-10-14T05:53:21.734Z,997.01
2022-10-14T05:54:21.694Z,996.94
2022-10-14T05:55:21.687Z,997.04
2022-10-14T05:56:22.679Z,996.97
2022-10-14T05:57:21.668Z,997.03
2022-10-14T05:58:21.695Z,997.06
2022-10-14T05:59:21.661Z,997.08
2022-10-14T06:00:25.595Z,997.05
2022-10-14T06:01:22.636Z,997.06
2022-10-14T06:02:21.906Z,997.07
2022-10-14T06:03:21.715Z,997.03
2022-10-14T06:04:21.607Z,996.99
2022-10-14T06:05:21.604Z,997.04
2022-10-14T06:06:25.293Z,996.98
2022-10-14T06:07:23.581Z,997.00
2022-10-14T06:08:21.581Z,997.03
2022-10-14T06:09:21.605Z,996.96
2022-10-14T06:10:21.552Z,996.97
2022-10-14T06:11:22.552Z,997.04
2022-10-14T06:12:21.824Z,996.99
2022-10-14T06:13:21.539Z,996.96
2022-10-14T06:14:21.555Z,996.99
2022-10-14T06:15:21.521Z,997.00
2022-10-14T06:16:21.525Z,996.99
2022-10-14T06:17:21.498Z,996.93
2022-10-14T06:18:21.493Z,997.03
2022-10-14T06:19:21.521Z,997.01
2022-10-14T06:20:21.490Z,997.10
2022-10-14T06:21:21.483Z,997.02
2022-10-14T06:22:21.597Z,997.02
2022-10-14T06:23:21.453Z,997.03
2022-10-14T06:24:21.484Z,997.05
2022-10-14T06:25:21.435Z,997.04
2022-10-14T06:26:21.425Z,997.01
2022-10-14T06:27:21.424Z,997.04
2022-10-14T06:28:21.487Z,997.02
2022-10-14T06:29:21.439Z,997.01
2022-10-14T06:30:21.397Z,997.02
2022-10-14T06:31:21.381Z,997.07
2022-10-14T06:32:21.556Z,997.06
2022-10-14T06:33:21.374Z,997.08
2022-10-14T06:34:21.386Z,996.99
2022-10-14T06:35:21.348Z,997.00
2022-10-14T06:36:21.342Z,996.99
2022-10-14T06:37:21.336Z,997.06
2022-10-14T06:38:21.328Z,997.03
2022-10-14T06:39:21.361Z,997.07
2022-10-14T06:40:21.312Z,997.12
2022-10-14T06:41:21.301Z,997.01
2022-10-14T06:42:21.300Z,997.06
2022-10-14T06:43:21.310Z,997.12
2022-10-14T06:44:21.305Z,997.09
2022-10-14T06:45:21.266Z,997.10
2022-10-14T06:46:21.255Z,997.09
2022-10-14T06:47:21.250Z,997.06
2022-10-14T06:48:21.266Z,997.03
2022-10-14T06:49:21.258Z,997.05
2022-10-14T06:50:21.230Z,997.10
2022-10-14T06:51:21.223Z,997.09
2022-10-14T06:52:21.655Z,996.99
2022-10-14T06:53:21.220Z,997.05
2022-10-14T06:54:21.230Z,997.04
2022-10-14T06:55:21.182Z,997.05
2022-10-14T06:56:21.184Z,997.03
2022-10-14T06:57:21.234Z,997.09
2022-10-14T06:58:21.293Z,997.06
2022-10-14T06:59:21.178Z,997.09
2022-10-14T07:00:21.144Z,997.09
2022-10-14T07:01:21.175Z,997.04
2022-10-14T07:02:21.501Z,997.08
2022-10-14T07:03:21.123Z,997.12
2022-10-14T07:04:21.142Z,997.16
2022-10-14T07:05:21.106Z,997.07
2022-10-14T07:06:21.095Z,997.17
2022-10-14T07:07:21.090Z,997.10
2022-10-14T07:08:21.077Z,997.15
2022-10-14T07:09:21.099Z,997.16
2022-10-14T07:10:21.068Z,997.20
2022-10-14T07:11:21.047Z,997.22
2022-10-14T07:12:21.243Z,997.12
2022-10-14T07:13:21.041Z,997.14
2022-10-14T07:14:21.057Z,997.13
2022-10-14T07:15:21.022Z,997.11
2022-10-14T07:16:21.015Z,997.16
2022-10-14T07:17:21.292Z,997.12
2022-10-14T07:18:21.005Z,997.13
2022-10-14T07:19:21.026Z,997.09
2022-10-14T07:20:20.995Z,997.17
2022-10-14T07:21:20.981Z,997.18
2022-10-14T07:22:21.272Z,997.16
2022-10-14T07:23:20.954Z,997.15
2022-10-14T07:24:20.997Z,997.10
2022-10-14T07:25:20.946Z,997.09
2022-10-14T07:26:20.933Z,997.13
2022-10-14T07:27:21.191Z,997.13
2022-10-14T07:28:20.950Z,997.17
2022-10-14T07:29:20.906Z,997.14
2022-10-14T07:30:20.930Z,997.13
2022-10-14T07:31:20.904Z,997.06
2022-10-14T07:32:20.886Z,997.11
2022-10-14T07:33:20.879Z,997.11
2022-10-14T07:34:20.867Z,997.11
2022-10-14T07:35:20.893Z,997.11
2022-10-14T07:36:22.576Z,997.12
2022-10-14T07:37:21.081Z,997.15
2022-10-14T07:38:20.842Z,997.06
2022-10-14T07:39:20.830Z,997.14
2022-10-14T07:40:20.849Z,997.05
2022-10-14T07:41:21.813Z,997.10
2022-10-14T07:43:21.794Z,997.09
2022-10-14T07:44:23.571Z,997.07
2022-10-14T07:45:22.805Z,997.08
2022-10-14T07:46:20.767Z,997.10
2022-10-14T07:47:20.981Z,997.04
2022-10-14T07:48:27.356Z,997.09
2022-10-14T07:49:21.743Z,997.12
2022-10-14T07:50:20.761Z,997.03
2022-10-14T07:51:20.735Z,997.06
2022-10-14T07:52:20.720Z,997.10
2022-10-14T07:53:20.724Z,997.06
2022-10-14T07:54:20.707Z,997.03
2022-10-14T07:55:20.734Z,997.05
2022-10-14T07:56:20.699Z,997.05
2022-10-14T07:57:21.207Z,997.06
2022-10-14T07:58:20.677Z,997.03
2022-10-14T07:59:20.661Z,997.05
2022-10-14T08:00:20.711Z,997.04
2022-10-14T08:01:20.716Z,997.02
2022-10-14T08:02:20.646Z,997.05
2022-10-14T08:03:20.642Z,997.00
2022-10-14T08:04:20.618Z,997.04
2022-10-14T08:05:38.566Z,996.99
2022-10-14T08:06:22.615Z,997.00
2022-10-14T08:07:20.804Z,996.97
2022-10-14T08:08:20.603Z,996.92
2022-10-14T08:09:20.669Z,996.87
2022-10-14T08:10:20.606Z,996.94
2022-10-14T08:11:20.603Z,996.92
2022-10-14T08:12:20.759Z,996.93
2022-10-14T08:13:20.560Z,996.91
2022-10-14T08:14:20.553Z,996.86
2022-10-14T08:15:20.567Z,996.90
2022-10-14T08:16:20.533Z,996.91
2022-10-14T08:17:20.524Z,996.91
2022-10-14T08:18:20.524Z,996.91
2022-10-14T08:19:20.505Z,996.96
2022-10-14T08:21:20.503Z,996.96
2022-10-14T08:22:20.764Z,996.90
2022-10-14T08:23:20.470Z,996.96
2022-10-14T08:24:20.467Z,996.90
2022-10-14T08:25:20.497Z,996.91
2022-10-14T08:26:20.455Z,996.95
2022-10-14T08:27:20.437Z,996.96
2022-10-14T08:28:20.472Z,996.92
2022-10-14T08:29:20.425Z,996.93
2022-10-14T08:30:20.472Z,996.84
2022-10-14T08:31:20.427Z,996.86
2022-10-14T08:32:20.771Z,996.94
2022-10-14T08:33:20.392Z,996.91
2022-10-14T08:34:20.385Z,996.84
2022-10-14T08:35:20.430Z,996.83
2022-10-14T08:36:20.400Z,996.89
2022-10-14T08:37:20.359Z,996.85
2022-10-14T08:38:20.361Z,996.85
2022-10-14T08:39:21.441Z,996.82
2022-10-14T08:40:20.816Z,996.87
2022-10-14T08:41:20.351Z,996.91
2022-10-14T08:42:20.789Z,996.92
2022-10-14T08:43:20.313Z,996.94
2022-10-14T08:44:20.307Z,996.93
2022-10-14T08:45:20.294Z,996.93
2022-10-14T08:46:20.325Z,996.94
2022-10-14T08:47:20.285Z,996.96
2022-10-14T08:48:20.283Z,996.97
2022-10-14T08:49:20.262Z,996.96
2022-10-14T08:50:20.281Z,996.98
2022-10-14T08:51:20.294Z,996.93
2022-10-14T08:52:20.577Z,996.96
2022-10-14T08:53:20.237Z,996.85
2022-10-14T08:54:20.220Z,996.85
2022-10-14T08:55:20.214Z,996.84
2022-10-14T08:56:20.235Z,996.84
2022-10-14T08:57:20.196Z,996.85
2022-10-14T08:58:20.297Z,996.83
2022-10-14T08:59:20.188Z,996.81
2022-10-14T09:00:20.326Z,996.78
2022-10-14T09:01:20.188Z,996.74
2022-10-14T09:02:20.358Z,996.76
2022-10-14T09:03:20.152Z,996.79
2022-10-14T09:04:20.235Z,996.72
2022-10-14T09:05:20.130Z,996.75
2022-10-14T09:06:20.155Z,996.76
2022-10-14T09:07:20.113Z,996.74
2022-10-14T09:08:20.107Z,996.72
2022-10-14T09:09:20.096Z,996.70
2022-10-14T09:10:20.145Z,996.72
2022-10-14T09:11:20.109Z,996.72
2022-10-14T09:12:20.583Z,996.70
2022-10-14T09:13:20.072Z,996.72
2022-10-14T09:14:20.070Z,996.71
2022-10-14T09:15:20.057Z,996.69
2022-10-14T09:16:20.071Z,996.68
2022-10-14T09:17:20.037Z,996.62
2022-10-14T09:18:20.029Z,996.58
2022-10-14T09:19:20.024Z,996.64
2022-10-14T09:20:20.042Z,996.54
2022-10-14T09:21:27.882Z,996.59
2022-10-14T09:22:22.369Z,996.60
2022-10-14T09:23:19.983Z,996.56
2022-10-14T09:24:19.974Z,996.53
2022-10-14T09:25:19.971Z,996.53
2022-10-14T09:26:19.995Z,996.52
2022-10-14T09:27:20.202Z,996.56
2022-10-14T09:28:19.977Z,996.51
2022-10-14T09:29:19.934Z,996.51
2022-10-14T09:30:20.022Z,996.51
2022-10-14T09:31:19.945Z,996.52
2022-10-14T09:32:20.158Z,996.47
2022-10-14T09:33:19.905Z,996.54
2022-10-14T09:34:20.405Z,996.54
2022-10-14T09:35:19.898Z,996.48
2022-10-14T09:36:19.879Z,996.59
2022-10-14T09:37:20.096Z,996.54
2022-10-14T09:38:19.887Z,996.55
2022-10-14T09:39:19.860Z,996.54
2022-10-14T09:40:19.855Z,996.47
2022-10-14T09:41:19.845Z,996.48
2022-10-14T09:42:19.865Z,996.53
2022-10-14T09:43:19.841Z,996.53
2022-10-14T09:44:19.822Z,996.47
2022-10-14T09:45:19.817Z,996.42
2022-10-14T09:46:19.803Z,996.47
2022-10-14T09:47:19.967Z,996.48
2022-10-14T09:48:19.788Z,996.48
2022-10-14T09:49:19.784Z,996.51
2022-10-14T09:50:19.774Z,996.50
2022-10-14T09:51:19.772Z,996.49
2022-10-14T09:52:19.801Z,996.50
2022-10-14T09:53:19.753Z,996.51
2022-10-14T09:54:19.739Z,996.45
2022-10-14T09:55:19.731Z,996.44
2022-10-14T09:56:20.817Z,996.45
2022-10-14T09:57:19.922Z,996.44
2022-10-14T09:58:19.703Z,996.39
2022-10-14T09:59:19.707Z,996.48
2022-10-14T10:00:19.722Z,996.40
2022-10-14T10:01:19.681Z,996.31
2022-10-14T10:02:19.745Z,996.33
2022-10-14T10:03:19.667Z,996.27
2022-10-14T10:04:19.678Z,996.24
2022-10-14T10:05:19.653Z,996.25
2022-10-14T10:06:19.635Z,996.31
2022-10-14T10:07:20.027Z,996.20
2022-10-14T10:08:19.629Z,996.26
2022-10-14T10:09:19.618Z,996.19
2022-10-14T10:10:19.610Z,996.18
2022-10-14T10:11:19.598Z,996.22
2022-10-14T10:12:19.624Z,996.17
2022-10-14T10:13:19.585Z,996.24
2022-10-14T10:14:19.576Z,996.17
2022-10-14T10:15:19.569Z,996.18
2022-10-14T10:16:19.595Z,996.14
2022-10-14T10:17:19.761Z,996.18
2022-10-14T10:18:19.548Z,996.14
2022-10-14T10:19:19.534Z,996.18
2022-10-14T10:20:19.530Z,996.21
2022-10-14T10:21:19.511Z,996.22
2022-10-14T10:23:20.505Z,996.32
2022-10-14T10:24:19.486Z,996.34
2022-10-14T10:25:19.480Z,996.23
2022-10-14T10:26:19.475Z,996.25
2022-10-14T10:27:19.822Z,996.22
2022-10-14T10:28:19.485Z,996.24
2022-10-14T10:29:19.458Z,996.17
2022-10-14T10:30:19.456Z,996.19
2022-10-14T10:31:19.588Z,996.12
2022-10-14T10:32:19.695Z,996.16
2022-10-14T10:33:19.420Z,996.21
2022-10-14T10:34:19.400Z,996.18
2022-10-14T10:35:19.399Z,996.13
2022-10-14T10:37:20.856Z,996.10
2022-10-14T10:38:19.370Z,996.08
2022-10-14T10:39:19.371Z,996.06
2022-10-14T10:40:19.359Z,996.05
2022-10-14T10:41:19.353Z,995.99
2022-10-14T10:42:19.525Z,996.01
2022-10-14T10:43:19.961Z,995.97
2022-10-14T10:44:19.331Z,995.98
2022-10-14T10:45:19.315Z,995.99
2022-10-14T10:46:20.309Z,995.98
2022-10-14T10:47:19.305Z,996.03
2022-10-14T10:48:19.327Z,995.99
2022-10-14T10:49:19.285Z,995.94
2022-10-14T10:50:19.287Z,995.92
2022-10-14T10:51:19.269Z,995.90
2022-10-14T10:52:21.430Z,995.94
2022-10-14T10:53:19.283Z,995.88
2022-10-14T10:54:19.247Z,995.85
2022-10-14T10:55:19.233Z,995.83
2022-10-14T10:56:19.235Z,995.82
2022-10-14T10:57:19.294Z,995.78
2022-10-14T10:58:19.238Z,995.75
2022-10-14T11:00:19.239Z,995.75
2022-10-14T11:01:19.269Z,995.75
2022-10-14T11:02:19.423Z,995.72
2022-10-14T11:03:19.196Z,995.72
2022-10-14T11:04:19.163Z,995.74
2022-10-14T11:05:19.156Z,995.74
2022-10-14T11:06:19.141Z,995.68
2022-10-14T11:07:21.022Z,995.68
2022-10-14T11:08:19.156Z,995.66
2022-10-14T11:09:19.115Z,995.64
2022-10-14T11:10:19.110Z,995.53
2022-10-14T11:11:19.099Z,995.51
2022-10-14T11:12:19.260Z,995.49
2022-10-14T11:13:19.119Z,995.54
2022-10-14T11:14:19.096Z,995.49
2022-10-14T11:16:20.057Z,995.52
2022-10-14T11:17:19.297Z,995.55
2022-10-14T11:18:19.076Z,995.50
2022-10-14T11:19:19.034Z,995.49
2022-10-14T11:20:19.031Z,995.57
2022-10-14T11:21:19.022Z,995.48
2022-10-14T11:22:19.209Z,995.41
2022-10-14T11:23:19.033Z,995.46
2022-10-14T11:24:19.040Z,995.41
2022-10-14T11:25:18.985Z,995.34
2022-10-14T11:26:18.970Z,995.38
2022-10-14T11:27:23.914Z,995.33
2022-10-14T11:28:19.008Z,995.39
2022-10-14T11:29:18.948Z,995.33
2022-10-14T11:30:18.938Z,995.36
2022-10-14T11:31:18.939Z,995.42
2022-10-14T11:32:18.927Z,995.40
2022-10-14T11:33:18.951Z,995.37
2022-10-14T11:34:18.913Z,995.36
2022-10-14T11:35:18.904Z,995.32
2022-10-14T11:36:18.897Z,995.30
2022-10-14T11:37:19.008Z,995.25
2022-10-14T11:38:18.915Z,995.22
2022-10-14T11:39:18.859Z,995.20
2022-10-14T11:40:18.859Z,995.19
2022-10-14T11:41:18.856Z,995.23
2022-10-14T11:42:18.849Z,995.17
2022-10-14T11:43:18.863Z,995.15
2022-10-14T11:44:18.831Z,995.15
2022-10-14T11:45:21.256Z,995.19
2022-10-14T11:46:18.808Z,995.19
2022-10-14T11:47:18.934Z,995.21
2022-10-14T11:48:18.832Z,995.20
2022-10-14T11:49:18.791Z,995.13
2022-10-14T11:50:18.772Z,995.08
2022-10-14T11:51:18.775Z,995.05
2022-10-14T11:52:18.802Z,995.05
2022-10-14T11:53:18.796Z,995.01
2022-10-14T11:54:18.756Z,995.05
2022-10-14T11:55:18.743Z,995.02
2022-10-14T11:56:18.732Z,995.00
2022-10-14T11:57:18.723Z,995.03
2022-10-14T11:58:18.746Z,995.05
2022-10-14T11:59:18.738Z,995.01
2022-10-14T12:00:18.732Z,995.02
2022-10-14T12:01:18.686Z,995.01
2022-10-14T12:02:18.798Z,995.03
2022-10-14T12:03:18.675Z,995.04
2022-10-14T12:04:18.696Z,995.06
2022-10-14T12:05:18.661Z,995.06
2022-10-14T12:06:18.647Z,995.02
2022-10-14T12:07:18.641Z,995.04
2022-10-14T12:08:18.629Z,995.04
2022-10-14T12:09:18.645Z,994.99
2022-10-14T12:10:18.617Z,994.95
2022-10-14T12:11:18.613Z,994.99
2022-10-14T12:12:18.596Z,994.99
2022-10-14T12:13:18.622Z,994.90
2022-10-14T12:14:18.587Z,994.86
2022-10-14T12:15:18.617Z,994.87
2022-10-14T12:16:18.568Z,994.82
2022-10-14T12:17:18.988Z,994.76
2022-10-14T12:18:18.580Z,994.82
2022-10-14T12:19:18.539Z,994.80
2022-10-14T12:20:18.552Z,994.75
2022-10-14T12:21:18.519Z,994.81
2022-10-14T12:22:18.516Z,994.80
2022-10-14T12:23:18.534Z,994.72
2022-10-14T12:24:18.505Z,994.83
2022-10-14T12:25:18.491Z,994.73
2022-10-14T12:26:18.489Z,994.78
2022-10-14T12:27:18.498Z,994.64
2022-10-14T12:28:18.522Z,994.68
2022-10-14T12:29:18.455Z,994.64
2022-10-14T12:30:18.456Z,994.59
2022-10-14T12:31:18.445Z,994.69
2022-10-14T12:32:18.431Z,994.63
2022-10-14T12:33:22.525Z,994.62
2022-10-14T12:34:19.426Z,994.62